sensor_id;sensor_type;location;lat;lon;timestamp;P1;durP1;ratioP1;P2;durP2;ratioP2
16310;SDS011;8264;48.510;8.872;2022-12-18T00:02:00;45.15;;;22.83;;
16310;SDS011;8264;48.510;8.872;2022-12-18T00:04:27;41.03;;;21.20;;
16310;SDS011;8264;48.510;8.872;2022-12-18T00:06:55;45.47;;;21.55;;
16310;SDS011;8264;48.510;8.872;2022-12-18T00:09:22;42.45;;;21.67;;
16310;SDS011;8264;48.510;8.872;2022-12-18T00:11:48;48.65;;;21.75;;
16310;SDS011;8264;48.510;8.872;2022-12-18T00:14:15;44.17;;;21.83;;
16310;SDS011;8264;48.510;8.872;2022-12-18T00:16:45;41.22;;;20.85;;
16310;SDS011;8264;48.510;8.872;2022-12-18T00:19:12;42.72;;;20.70;;
16310;SDS011;8264;48.510;8.872;2022-12-18T00:21:39;43.38;;;21.95;;
16310;SDS011;8264;48.510;8.872;2022-12-18T00:24:07;42.83;;;22.08;;
16310;SDS011;8264;48.510;8.872;2022-12-18T00:26:34;43.33;;;21.73;;
16310;SDS011;8264;48.510;8.872;2022-12-18T00:29:02;46.08;;;22.02;;
16310;SDS011;8264;48.510;8.872;2022-12-18T00:31:30;42.65;;;22.23;;
16310;SDS011;8264;48.510;8.872;2022-12-18T00:33:57;42.15;;;20.00;;
16310;SDS011;8264;48.510;8.872;2022-12-18T00:36:25;40.97;;;20.60;;
16310;SDS011;8264;48.510;8.872;2022-12-18T00:38:52;42.78;;;21.15;;
16310;SDS011;8264;48.510;8.872;2022-12-18T00:41:21;40.75;;;20.98;;
16310;SDS011;8264;48.510;8.872;2022-12-18T00:44:02;42.35;;;20.98;;
16310;SDS011;8264;48.510;8.872;2022-12-18T00:46:29;36.15;;;20.65;;
16310;SDS011;8264;48.510;8.872;2022-12-18T00:48:56;43.45;;;20.95;;
16310;SDS011;8264;48.510;8.872;2022-12-18T00:51:23;51.40;;;21.40;;
16310;SDS011;8264;48.510;8.872;2022-12-18T00:53:50;42.17;;;20.13;;
16310;SDS011;8264;48.510;8.872;2022-12-18T00:56:17;35.80;;;19.77;;
16310;SDS011;8264;48.510;8.872;2022-12-18T00:58:47;42.47;;;20.27;;
16310;SDS011;8264;48.510;8.872;2022-12-18T01:01:17;35.22;;;17.73;;
16310;SDS011;8264;48.510;8.872;2022-12-18T01:03:44;38.63;;;19.30;;
16310;SDS011;8264;48.510;8.872;2022-12-18T01:06:12;42.00;;;20.90;;
16310;SDS011;8264;48.510;8.872;2022-12-18T01:08:39;38.65;;;19.73;;
16310;SDS011;8264;48.510;8.872;2022-12-18T01:11:07;34.85;;;19.40;;
16310;SDS011;8264;48.510;8.872;2022-12-18T02:47:19;66.80;;;22.33;;
16310;SDS011;8264;48.510;8.872;2022-12-18T02:49:49;64.85;;;23.13;;
16310;SDS011;8264;48.510;8.872;2022-12-18T02:52:24;57.88;;;22.55;;
16310;SDS011;8264;48.510;8.872;2022-12-18T02:55:00;72.38;;;22.15;;
16310;SDS011;8264;48.510;8.872;2022-12-18T02:57:34;58.13;;;22.73;;
16310;SDS011;8264;48.510;8.872;2022-12-18T03:00:04;73.40;;;24.13;;
16310;SDS011;8264;48.510;8.872;2022-12-18T03:02:36;79.47;;;23.27;;
16310;SDS011;8264;48.510;8.872;2022-12-18T03:16:28;58.95;;;23.25;;
16310;SDS011;8264;48.510;8.872;2022-12-18T03:19:00;70.80;;;23.38;;
16310;SDS011;8264;48.510;8.872;2022-12-18T03:21:28;73.50;;;24.67;;
16310;SDS011;8264;48.510;8.872;2022-12-18T03:23:58;59.55;;;23.50;;
16310;SDS011;8264;48.510;8.872;2022-12-18T03:26:25;86.10;;;25.42;;
16310;SDS011;8264;48.510;8.872;2022-12-18T03:28:53;78.10;;;25.67;;
16310;SDS011;8264;48.510;8.872;2022-12-18T03:31:22;98.70;;;26.55;;
16310;SDS011;8264;48.510;8.872;2022-12-18T03:33:51;93.03;;;26.08;;
16310;SDS011;8264;48.510;8.872;2022-12-18T03:36:20;90.97;;;24.88;;
16310;SDS011;8264;48.510;8.872;2022-12-18T03:38:47;71.75;;;25.85;;
16310;SDS011;8264;48.510;8.872;2022-12-18T03:41:22;89.85;;;28.73;;
16310;SDS011;8264;48.510;8.872;2022-12-18T03:43:56;75.80;;;26.45;;
16310;SDS011;8264;48.510;8.872;2022-12-18T03:46:28;63.55;;;23.33;;
16310;SDS011;8264;48.510;8.872;2022-12-18T03:48:59;63.20;;;22.25;;
16310;SDS011;8264;48.510;8.872;2022-12-18T03:51:30;75.03;;;27.63;;
16310;SDS011;8264;48.510;8.872;2022-12-18T03:54:01;85.97;;;27.80;;
16310;SDS011;8264;48.510;8.872;2022-12-18T03:56:29;82.22;;;26.55;;
16310;SDS011;8264;48.510;8.872;2022-12-18T03:58:58;74.38;;;26.88;;
16310;SDS011;8264;48.510;8.872;2022-12-18T04:01:27;76.70;;;26.70;;
16310;SDS011;8264;48.510;8.872;2022-12-18T04:03:55;72.20;;;26.38;;
16310;SDS011;8264;48.510;8.872;2022-12-18T04:06:23;74.60;;;25.92;;
16310;SDS011;8264;48.510;8.872;2022-12-18T04:08:51;82.28;;;29.17;;
16310;SDS011;8264;48.510;8.872;2022-12-18T04:11:18;99.93;;;29.80;;
16310;SDS011;8264;48.510;8.872;2022-12-18T04:13:44;85.93;;;28.92;;
16310;SDS011;8264;48.510;8.872;2022-12-18T04:16:11;68.38;;;24.02;;
16310;SDS011;8264;48.510;8.872;2022-12-18T04:18:38;71.55;;;26.42;;
16310;SDS011;8264;48.510;8.872;2022-12-18T04:21:05;86.38;;;29.60;;
16310;SDS011;8264;48.510;8.872;2022-12-18T04:23:31;74.75;;;25.90;;
16310;SDS011;8264;48.510;8.872;2022-12-18T04:25:59;82.75;;;28.85;;
16310;SDS011;8264;48.510;8.872;2022-12-18T04:28:26;81.82;;;26.50;;
16310;SDS011;8264;48.510;8.872;2022-12-18T04:30:53;82.65;;;26.35;;
16310;SDS011;8264;48.510;8.872;2022-12-18T04:33:19;73.93;;;26.33;;
16310;SDS011;8264;48.510;8.872;2022-12-18T04:35:46;83.25;;;28.90;;
16310;SDS011;8264;48.510;8.872;2022-12-18T04:38:12;82.20;;;28.08;;
16310;SDS011;8264;48.510;8.872;2022-12-18T05:09:54;64.18;;;23.45;;
16310;SDS011;8264;48.510;8.872;2022-12-18T05:12:21;61.50;;;23.88;;
16310;SDS011;8264;48.510;8.872;2022-12-18T05:14:47;69.60;;;25.85;;
16310;SDS011;8264;48.510;8.872;2022-12-18T05:17:13;67.40;;;26.20;;
16310;SDS011;8264;48.510;8.872;2022-12-18T05:19:40;65.45;;;25.33;;
16310;SDS011;8264;48.510;8.872;2022-12-18T05:22:06;63.17;;;23.75;;
16310;SDS011;8264;48.510;8.872;2022-12-18T05:24:33;59.53;;;23.92;;
16310;SDS011;8264;48.510;8.872;2022-12-18T05:27:01;54.63;;;23.00;;
16310;SDS011;8264;48.510;8.872;2022-12-18T05:29:28;62.35;;;24.52;;
16310;SDS011;8264;48.510;8.872;2022-12-18T05:31:54;53.53;;;22.08;;
16310;SDS011;8264;48.510;8.872;2022-12-18T05:34:21;58.05;;;23.08;;
16310;SDS011;8264;48.510;8.872;2022-12-18T05:36:47;82.78;;;22.13;;
16310;SDS011;8264;48.510;8.872;2022-12-18T05:39:14;73.05;;;21.88;;
16310;SDS011;8264;48.510;8.872;2022-12-18T05:41:40;62.20;;;22.90;;
16310;SDS011;8264;48.510;8.872;2022-12-18T05:44:08;99.57;;;22.40;;
16310;SDS011;8264;48.510;8.872;2022-12-18T05:46:34;45.28;;;20.35;;
16310;SDS011;8264;48.510;8.872;2022-12-18T05:49:02;47.45;;;20.98;;
16310;SDS011;8264;48.510;8.872;2022-12-18T05:51:28;73.90;;;34.00;;
16310;SDS011;8264;48.510;8.872;2022-12-18T05:53:55;149.40;;;61.85;;
16310;SDS011;8264;48.510;8.872;2022-12-18T05:56:21;107.85;;;49.72;;
16310;SDS011;8264;48.510;8.872;2022-12-18T05:58:50;88.00;;;37.72;;
16310;SDS011;8264;48.510;8.872;2022-12-18T06:01:20;66.07;;;27.10;;
16310;SDS011;8264;48.510;8.872;2022-12-18T06:03:48;66.20;;;28.02;;
16310;SDS011;8264;48.510;8.872;2022-12-18T06:06:14;58.33;;;24.58;;
16310;SDS011;8264;48.510;8.872;2022-12-18T06:08:42;51.10;;;21.15;;
16310;SDS011;8264;48.510;8.872;2022-12-18T06:11:08;53.08;;;21.33;;
16310;SDS011;8264;48.510;8.872;2022-12-18T06:13:35;59.05;;;22.42;;
16310;SDS011;8264;48.510;8.872;2022-12-18T06:16:02;48.72;;;22.20;;
16310;SDS011;8264;48.510;8.872;2022-12-18T06:18:30;50.75;;;20.73;;
16310;SDS011;8264;48.510;8.872;2022-12-18T06:20:57;58.70;;;23.02;;
16310;SDS011;8264;48.510;8.872;2022-12-18T06:23:24;51.40;;;23.63;;
16310;SDS011;8264;48.510;8.872;2022-12-18T06:25:51;51.95;;;22.92;;
16310;SDS011;8264;48.510;8.872;2022-12-18T06:28:18;42.63;;;19.20;;
16310;SDS011;8264;48.510;8.872;2022-12-18T06:30:44;47.70;;;21.27;;
16310;SDS011;8264;48.510;8.872;2022-12-18T06:33:11;41.47;;;19.98;;
16310;SDS011;8264;48.510;8.872;2022-12-18T06:35:39;41.20;;;18.67;;
16310;SDS011;8264;48.510;8.872;2022-12-18T06:38:06;46.40;;;21.40;;
16310;SDS011;8264;48.510;8.872;2022-12-18T06:40:32;38.65;;;18.55;;
16310;SDS011;8264;48.510;8.872;2022-12-18T06:42:59;48.40;;;20.15;;
16310;SDS011;8264;48.510;8.872;2022-12-18T06:45:25;45.42;;;18.73;;
16310;SDS011;8264;48.510;8.872;2022-12-18T06:47:52;41.28;;;18.00;;
16310;SDS011;8264;48.510;8.872;2022-12-18T06:50:19;44.20;;;18.63;;
16310;SDS011;8264;48.510;8.872;2022-12-18T06:52:47;43.08;;;18.95;;
16310;SDS011;8264;48.510;8.872;2022-12-18T06:55:14;43.90;;;18.85;;
16310;SDS011;8264;48.510;8.872;2022-12-18T06:57:40;47.80;;;20.08;;
16310;SDS011;8264;48.510;8.872;2022-12-18T07:00:07;52.38;;;20.10;;
16310;SDS011;8264;48.510;8.872;2022-12-18T07:02:34;44.38;;;19.75;;
16310;SDS011;8264;48.510;8.872;2022-12-18T07:05:00;47.67;;;19.73;;
16310;SDS011;8264;48.510;8.872;2022-12-18T07:07:27;46.50;;;20.67;;
16310;SDS011;8264;48.510;8.872;2022-12-18T07:09:55;44.60;;;19.38;;
16310;SDS011;8264;48.510;8.872;2022-12-18T07:12:21;39.10;;;17.33;;
16310;SDS011;8264;48.510;8.872;2022-12-18T07:14:48;43.78;;;19.35;;
16310;SDS011;8264;48.510;8.872;2022-12-18T07:17:14;45.13;;;20.05;;
16310;SDS011;8264;48.510;8.872;2022-12-18T07:19:41;43.47;;;18.52;;
16310;SDS011;8264;48.510;8.872;2022-12-18T07:22:07;43.17;;;17.38;;
16310;SDS011;8264;48.510;8.872;2022-12-18T07:24:34;39.10;;;18.17;;
16310;SDS011;8264;48.510;8.872;2022-12-18T07:27:02;42.88;;;18.15;;
16310;SDS011;8264;48.510;8.872;2022-12-18T07:29:28;43.05;;;19.80;;
16310;SDS011;8264;48.510;8.872;2022-12-18T07:31:55;43.38;;;19.33;;
16310;SDS011;8264;48.510;8.872;2022-12-18T07:34:22;39.42;;;17.90;;
16310;SDS011;8264;48.510;8.872;2022-12-18T07:36:48;45.65;;;18.42;;
16310;SDS011;8264;48.510;8.872;2022-12-18T07:39:15;44.97;;;19.35;;
16310;SDS011;8264;48.510;8.872;2022-12-18T07:41:41;48.30;;;20.63;;
16310;SDS011;8264;48.510;8.872;2022-12-18T07:44:12;48.25;;;20.08;;
16310;SDS011;8264;48.510;8.872;2022-12-18T07:46:39;39.67;;;19.02;;
16310;SDS011;8264;48.510;8.872;2022-12-18T07:49:05;44.63;;;19.33;;
16310;SDS011;8264;48.510;8.872;2022-12-18T07:51:32;47.58;;;20.73;;
16310;SDS011;8264;48.510;8.872;2022-12-18T07:53:58;48.72;;;19.88;;
16310;SDS011;8264;48.510;8.872;2022-12-18T07:56:25;40.47;;;18.05;;
16310;SDS011;8264;48.510;8.872;2022-12-18T07:58:51;40.25;;;17.90;;
16310;SDS011;8264;48.510;8.872;2022-12-18T08:01:19;47.75;;;18.10;;
16310;SDS011;8264;48.510;8.872;2022-12-18T08:03:45;51.72;;;20.55;;
16310;SDS011;8264;48.510;8.872;2022-12-18T08:06:12;42.65;;;20.17;;
16310;SDS011;8264;48.510;8.872;2022-12-18T08:08:38;47.38;;;20.92;;
16310;SDS011;8264;48.510;8.872;2022-12-18T08:11:06;44.85;;;21.20;;
16310;SDS011;8264;48.510;8.872;2022-12-18T08:13:33;48.40;;;21.00;;
16310;SDS011;8264;48.510;8.872;2022-12-18T08:16:00;42.55;;;19.67;;
16310;SDS011;8264;48.510;8.872;2022-12-18T08:18:29;46.45;;;21.50;;
16310;SDS011;8264;48.510;8.872;2022-12-18T08:20:56;47.78;;;21.08;;
16310;SDS011;8264;48.510;8.872;2022-12-18T08:23:22;42.45;;;19.95;;
16310;SDS011;8264;48.510;8.872;2022-12-18T08:25:49;41.42;;;19.90;;
16310;SDS011;8264;48.510;8.872;2022-12-18T08:28:16;46.67;;;21.60;;
16310;SDS011;8264;48.510;8.872;2022-12-18T08:30:42;47.35;;;19.85;;
16310;SDS011;8264;48.510;8.872;2022-12-18T08:33:09;45.35;;;19.90;;
16310;SDS011;8264;48.510;8.872;2022-12-18T08:35:37;53.55;;;21.70;;
16310;SDS011;8264;48.510;8.872;2022-12-18T08:38:03;44.95;;;20.42;;
16310;SDS011;8264;48.510;8.872;2022-12-18T08:40:30;54.13;;;21.90;;
16310;SDS011;8264;48.510;8.872;2022-12-18T08:42:56;51.20;;;21.40;;
16310;SDS011;8264;48.510;8.872;2022-12-18T08:45:40;45.78;;;20.75;;
16310;SDS011;8264;48.510;8.872;2022-12-18T08:48:07;50.50;;;21.05;;
16310;SDS011;8264;48.510;8.872;2022-12-18T08:50:33;49.05;;;21.15;;
16310;SDS011;8264;48.510;8.872;2022-12-18T08:53:01;59.58;;;22.80;;
16310;SDS011;8264;48.510;8.872;2022-12-18T08:55:28;53.20;;;21.75;;
16310;SDS011;8264;48.510;8.872;2022-12-18T08:57:54;49.65;;;20.15;;
16310;SDS011;8264;48.510;8.872;2022-12-18T09:00:21;51.25;;;22.25;;
16310;SDS011;8264;48.510;8.872;2022-12-18T09:02:47;56.92;;;24.38;;
16310;SDS011;8264;48.510;8.872;2022-12-18T09:05:14;62.85;;;26.35;;
16310;SDS011;8264;48.510;8.872;2022-12-18T09:07:41;77.80;;;35.83;;
16310;SDS011;8264;48.510;8.872;2022-12-18T09:10:09;81.85;;;34.55;;
16310;SDS011;8264;48.510;8.872;2022-12-18T09:12:36;102.43;;;45.13;;
16310;SDS011;8264;48.510;8.872;2022-12-18T09:15:02;86.18;;;41.90;;
16310;SDS011;8264;48.510;8.872;2022-12-18T09:17:29;87.38;;;40.85;;
16310;SDS011;8264;48.510;8.872;2022-12-18T09:19:56;75.03;;;38.75;;
16310;SDS011;8264;48.510;8.872;2022-12-18T09:22:22;76.88;;;36.75;;
16310;SDS011;8264;48.510;8.872;2022-12-18T09:24:49;67.38;;;33.85;;
16310;SDS011;8264;48.510;8.872;2022-12-18T09:27:17;66.20;;;31.98;;
16310;SDS011;8264;48.510;8.872;2022-12-18T09:29:43;83.00;;;40.63;;
16310;SDS011;8264;48.510;8.872;2022-12-18T09:32:10;78.35;;;38.22;;
16310;SDS011;8264;48.510;8.872;2022-12-18T09:34:36;77.10;;;36.35;;
16310;SDS011;8264;48.510;8.872;2022-12-18T09:37:03;71.25;;;36.95;;
16310;SDS011;8264;48.510;8.872;2022-12-18T09:39:29;72.88;;;36.75;;
16310;SDS011;8264;48.510;8.872;2022-12-18T09:41:57;74.78;;;38.15;;
16310;SDS011;8264;48.510;8.872;2022-12-18T09:44:26;88.07;;;37.65;;
16310;SDS011;8264;48.510;8.872;2022-12-18T09:46:57;82.93;;;40.72;;
16310;SDS011;8264;48.510;8.872;2022-12-18T09:49:29;73.88;;;37.88;;
16310;SDS011;8264;48.510;8.872;2022-12-18T09:51:57;90.53;;;40.10;;
16310;SDS011;8264;48.510;8.872;2022-12-18T09:54:26;83.82;;;39.60;;
16310;SDS011;8264;48.510;8.872;2022-12-18T09:56:57;79.20;;;39.28;;
16310;SDS011;8264;48.510;8.872;2022-12-18T09:59:24;73.00;;;37.13;;
16310;SDS011;8264;48.510;8.872;2022-12-18T10:01:58;77.43;;;37.05;;
16310;SDS011;8264;48.510;8.872;2022-12-18T10:04:32;70.32;;;34.15;;
16310;SDS011;8264;48.510;8.872;2022-12-18T10:07:00;68.70;;;34.92;;
16310;SDS011;8264;48.510;8.872;2022-12-18T10:09:31;72.03;;;35.53;;
16310;SDS011;8264;48.510;8.872;2022-12-18T10:12:02;64.65;;;32.83;;
16310;SDS011;8264;48.510;8.872;2022-12-18T10:14:36;67.75;;;33.33;;
16310;SDS011;8264;48.510;8.872;2022-12-18T10:17:12;72.07;;;34.72;;
16310;SDS011;8264;48.510;8.872;2022-12-18T10:19:43;66.53;;;33.63;;
16310;SDS011;8264;48.510;8.872;2022-12-18T10:22:18;70.90;;;34.13;;
16310;SDS011;8264;48.510;8.872;2022-12-18T10:24:50;71.07;;;35.33;;
16310;SDS011;8264;48.510;8.872;2022-12-18T10:27:21;70.13;;;34.67;;
16310;SDS011;8264;48.510;8.872;2022-12-18T10:29:52;69.57;;;37.08;;
16310;SDS011;8264;48.510;8.872;2022-12-18T10:32:20;68.97;;;34.05;;
16310;SDS011;8264;48.510;8.872;2022-12-18T10:34:47;74.82;;;36.90;;
16310;SDS011;8264;48.510;8.872;2022-12-18T10:37:16;80.28;;;40.65;;
16310;SDS011;8264;48.510;8.872;2022-12-18T10:39:44;94.70;;;46.67;;
16310;SDS011;8264;48.510;8.872;2022-12-18T10:42:13;78.07;;;41.65;;
16310;SDS011;8264;48.510;8.872;2022-12-18T10:44:42;79.63;;;42.70;;
16310;SDS011;8264;48.510;8.872;2022-12-18T10:47:12;89.05;;;45.55;;
16310;SDS011;8264;48.510;8.872;2022-12-18T10:49:42;77.10;;;39.88;;
16310;SDS011;8264;48.510;8.872;2022-12-18T10:52:15;73.38;;;37.28;;
16310;SDS011;8264;48.510;8.872;2022-12-18T10:54:46;61.92;;;31.67;;
16310;SDS011;8264;48.510;8.872;2022-12-18T10:57:15;65.80;;;33.10;;
16310;SDS011;8264;48.510;8.872;2022-12-18T11:00:03;75.00;;;38.35;;
16310;SDS011;8264;48.510;8.872;2022-12-18T11:02:48;74.50;;;33.45;;
16310;SDS011;8264;48.510;8.872;2022-12-18T11:05:27;63.10;;;30.10;;
16310;SDS011;8264;48.510;8.872;2022-12-18T11:07:55;52.35;;;26.27;;
16310;SDS011;8264;48.510;8.872;2022-12-18T11:10:23;53.22;;;27.33;;
16310;SDS011;8264;48.510;8.872;2022-12-18T11:12:52;56.63;;;28.55;;
16310;SDS011;8264;48.510;8.872;2022-12-18T11:15:20;52.80;;;28.38;;
16310;SDS011;8264;48.510;8.872;2022-12-18T11:17:49;49.05;;;25.27;;
16310;SDS011;8264;48.510;8.872;2022-12-18T11:20:21;52.25;;;25.48;;
16310;SDS011;8264;48.510;8.872;2022-12-18T11:22:56;65.10;;;30.88;;
16310;SDS011;8264;48.510;8.872;2022-12-18T11:25:23;53.25;;;27.17;;
16310;SDS011;8264;48.510;8.872;2022-12-18T11:27:51;58.95;;;28.88;;
16310;SDS011;8264;48.510;8.872;2022-12-18T11:30:22;63.38;;;30.73;;
16310;SDS011;8264;48.510;8.872;2022-12-18T11:32:52;54.33;;;29.35;;
16310;SDS011;8264;48.510;8.872;2022-12-18T11:35:32;65.25;;;28.75;;
16310;SDS011;8264;48.510;8.872;2022-12-18T11:38:02;53.00;;;29.08;;
16310;SDS011;8264;48.510;8.872;2022-12-18T11:40:32;58.25;;;29.48;;
16310;SDS011;8264;48.510;8.872;2022-12-18T11:43:02;59.42;;;32.42;;
16310;SDS011;8264;48.510;8.872;2022-12-18T11:45:34;63.85;;;33.53;;
16310;SDS011;8264;48.510;8.872;2022-12-18T11:48:03;73.00;;;36.78;;
16310;SDS011;8264;48.510;8.872;2022-12-18T11:50:34;57.47;;;29.30;;
16310;SDS011;8264;48.510;8.872;2022-12-18T11:53:09;50.17;;;27.25;;
16310;SDS011;8264;48.510;8.872;2022-12-18T11:55:39;41.75;;;24.38;;
16310;SDS011;8264;48.510;8.872;2022-12-18T11:58:11;48.13;;;26.95;;
16310;SDS011;8264;48.510;8.872;2022-12-18T12:00:42;40.25;;;23.10;;
16310;SDS011;8264;48.510;8.872;2022-12-18T12:03:24;49.85;;;26.58;;
16310;SDS011;8264;48.510;8.872;2022-12-18T12:06:05;46.88;;;26.13;;
16310;SDS011;8264;48.510;8.872;2022-12-18T12:08:37;50.10;;;26.70;;
16310;SDS011;8264;48.510;8.872;2022-12-18T12:11:09;54.88;;;26.77;;
16310;SDS011;8264;48.510;8.872;2022-12-18T12:13:43;45.67;;;25.70;;
16310;SDS011;8264;48.510;8.872;2022-12-18T12:16:15;47.97;;;26.25;;
16310;SDS011;8264;48.510;8.872;2022-12-18T12:18:49;51.08;;;27.90;;
16310;SDS011;8264;48.510;8.872;2022-12-18T12:21:27;56.08;;;29.80;;
16310;SDS011;8264;48.510;8.872;2022-12-18T12:24:00;57.00;;;31.40;;
16310;SDS011;8264;48.510;8.872;2022-12-18T12:26:33;54.22;;;29.65;;
16310;SDS011;8264;48.510;8.872;2022-12-18T12:29:10;59.58;;;30.83;;
16310;SDS011;8264;48.510;8.872;2022-12-18T12:31:55;55.78;;;30.20;;
16310;SDS011;8264;48.510;8.872;2022-12-18T12:34:30;51.28;;;27.60;;
16310;SDS011;8264;48.510;8.872;2022-12-18T12:37:04;56.33;;;28.88;;
16310;SDS011;8264;48.510;8.872;2022-12-18T12:39:40;56.10;;;28.65;;
16310;SDS011;8264;48.510;8.872;2022-12-18T12:42:11;42.75;;;24.77;;
16310;SDS011;8264;48.510;8.872;2022-12-18T12:44:56;38.10;;;20.83;;
16310;SDS011;8264;48.510;8.872;2022-12-18T12:47:25;38.85;;;20.90;;
16310;SDS011;8264;48.510;8.872;2022-12-18T12:49:55;35.15;;;19.92;;
16310;SDS011;8264;48.510;8.872;2022-12-18T12:52:25;37.90;;;21.02;;
16310;SDS011;8264;48.510;8.872;2022-12-18T12:54:54;35.47;;;20.63;;
16310;SDS011;8264;48.510;8.872;2022-12-18T12:57:21;36.75;;;20.00;;
16310;SDS011;8264;48.510;8.872;2022-12-18T12:59:51;36.72;;;20.63;;
16310;SDS011;8264;48.510;8.872;2022-12-18T13:02:26;53.20;;;27.38;;
16310;SDS011;8264;48.510;8.872;2022-12-18T13:04:58;52.85;;;30.00;;
16310;SDS011;8264;48.510;8.872;2022-12-18T13:07:29;50.08;;;28.63;;
16310;SDS011;8264;48.510;8.872;2022-12-18T13:13:01;49.58;;;25.85;;
16310;SDS011;8264;48.510;8.872;2022-12-18T13:15:30;45.05;;;25.40;;
16310;SDS011;8264;48.510;8.872;2022-12-18T13:18:03;42.05;;;22.40;;
16310;SDS011;8264;48.510;8.872;2022-12-18T13:20:46;35.22;;;18.92;;
16310;SDS011;8264;48.510;8.872;2022-12-18T13:23:25;37.40;;;20.33;;
16310;SDS011;8264;48.510;8.872;2022-12-18T13:25:54;35.05;;;19.88;;
16310;SDS011;8264;48.510;8.872;2022-12-18T13:28:22;37.47;;;22.13;;
16310;SDS011;8264;48.510;8.872;2022-12-18T13:30:51;37.33;;;21.92;;
16310;SDS011;8264;48.510;8.872;2022-12-18T13:36:28;43.60;;;23.02;;
16310;SDS011;8264;48.510;8.872;2022-12-18T13:39:20;50.28;;;26.77;;
16310;SDS011;8264;48.510;8.872;2022-12-18T13:41:51;50.72;;;28.83;;
16310;SDS011;8264;48.510;8.872;2022-12-18T13:44:27;56.88;;;28.33;;
16310;SDS011;8264;48.510;8.872;2022-12-18T13:46:57;48.80;;;27.42;;
16310;SDS011;8264;48.510;8.872;2022-12-18T13:49:25;52.63;;;26.67;;
16310;SDS011;8264;48.510;8.872;2022-12-18T13:51:56;44.10;;;26.20;;
16310;SDS011;8264;48.510;8.872;2022-12-18T13:54:24;47.83;;;26.50;;
16310;SDS011;8264;48.510;8.872;2022-12-18T13:56:52;46.75;;;25.48;;
16310;SDS011;8264;48.510;8.872;2022-12-18T13:59:19;48.90;;;25.50;;
16310;SDS011;8264;48.510;8.872;2022-12-18T14:01:49;53.67;;;26.20;;
16310;SDS011;8264;48.510;8.872;2022-12-18T14:04:19;46.88;;;25.88;;
16310;SDS011;8264;48.510;8.872;2022-12-18T14:06:49;47.72;;;26.92;;
16310;SDS011;8264;48.510;8.872;2022-12-18T14:09:20;45.05;;;26.23;;
16310;SDS011;8264;48.510;8.872;2022-12-18T14:11:49;49.03;;;27.00;;
16310;SDS011;8264;48.510;8.872;2022-12-18T14:14:17;45.00;;;26.27;;
16310;SDS011;8264;48.510;8.872;2022-12-18T14:16:44;53.58;;;28.25;;
16310;SDS011;8264;48.510;8.872;2022-12-18T14:19:12;49.85;;;27.90;;
16310;SDS011;8264;48.510;8.872;2022-12-18T14:21:40;44.30;;;25.00;;
16310;SDS011;8264;48.510;8.872;2022-12-18T14:24:13;47.17;;;24.95;;
16310;SDS011;8264;48.510;8.872;2022-12-18T14:26:42;51.33;;;25.60;;
16310;SDS011;8264;48.510;8.872;2022-12-18T14:29:20;46.90;;;25.27;;
16310;SDS011;8264;48.510;8.872;2022-12-18T14:34:48;44.80;;;25.42;;
16310;SDS011;8264;48.510;8.872;2022-12-18T14:37:15;50.20;;;27.65;;
16310;SDS011;8264;48.510;8.872;2022-12-18T14:39:52;49.50;;;25.35;;
16310;SDS011;8264;48.510;8.872;2022-12-18T14:42:21;52.30;;;26.77;;
16310;SDS011;8264;48.510;8.872;2022-12-18T14:44:47;45.78;;;26.27;;
16310;SDS011;8264;48.510;8.872;2022-12-18T14:47:14;45.88;;;27.42;;
16310;SDS011;8264;48.510;8.872;2022-12-18T14:49:41;49.30;;;26.83;;
16310;SDS011;8264;48.510;8.872;2022-12-18T14:52:24;49.00;;;26.40;;
16310;SDS011;8264;48.510;8.872;2022-12-18T14:54:52;46.58;;;25.80;;
16310;SDS011;8264;48.510;8.872;2022-12-18T14:57:21;48.45;;;25.67;;
16310;SDS011;8264;48.510;8.872;2022-12-18T14:59:49;51.00;;;26.15;;
16310;SDS011;8264;48.510;8.872;2022-12-18T15:02:18;43.40;;;24.42;;
16310;SDS011;8264;48.510;8.872;2022-12-18T15:04:46;39.25;;;25.75;;
16310;SDS011;8264;48.510;8.872;2022-12-18T15:07:14;51.53;;;28.73;;
16310;SDS011;8264;48.510;8.872;2022-12-18T15:09:42;55.90;;;27.20;;
16310;SDS011;8264;48.510;8.872;2022-12-18T15:12:22;46.25;;;24.83;;
16310;SDS011;8264;48.510;8.872;2022-12-18T15:14:52;47.53;;;26.73;;
16310;SDS011;8264;48.510;8.872;2022-12-18T15:17:19;48.95;;;27.55;;
16310;SDS011;8264;48.510;8.872;2022-12-18T15:19:47;54.90;;;28.15;;
16310;SDS011;8264;48.510;8.872;2022-12-18T15:22:19;47.25;;;25.40;;
16310;SDS011;8264;48.510;8.872;2022-12-18T15:24:47;48.30;;;25.67;;
16310;SDS011;8264;48.510;8.872;2022-12-18T15:27:22;45.08;;;26.20;;
16310;SDS011;8264;48.510;8.872;2022-12-18T15:32:46;48.72;;;27.45;;
16310;SDS011;8264;48.510;8.872;2022-12-18T15:35:14;53.60;;;25.92;;
16310;SDS011;8264;48.510;8.872;2022-12-18T15:37:43;45.58;;;26.10;;
16310;SDS011;8264;48.510;8.872;2022-12-18T15:40:11;46.85;;;26.58;;
16310;SDS011;8264;48.510;8.872;2022-12-18T15:42:40;46.75;;;25.25;;
16310;SDS011;8264;48.510;8.872;2022-12-18T15:45:24;51.25;;;25.45;;
16310;SDS011;8264;48.510;8.872;2022-12-18T15:47:51;49.13;;;26.38;;
16310;SDS011;8264;48.510;8.872;2022-12-18T15:50:17;43.92;;;24.48;;
16310;SDS011;8264;48.510;8.872;2022-12-18T15:52:44;44.90;;;25.73;;
16310;SDS011;8264;48.510;8.872;2022-12-18T15:55:12;41.58;;;22.85;;
16310;SDS011;8264;48.510;8.872;2022-12-18T15:57:58;45.60;;;24.83;;
16310;SDS011;8264;48.510;8.872;2022-12-18T16:00:26;50.05;;;25.90;;
16310;SDS011;8264;48.510;8.872;2022-12-18T16:02:52;44.20;;;23.60;;
16310;SDS011;8264;48.510;8.872;2022-12-18T16:05:20;48.67;;;23.48;;
16310;SDS011;8264;48.510;8.872;2022-12-18T16:07:46;47.60;;;24.83;;
16310;SDS011;8264;48.510;8.872;2022-12-18T16:10:13;44.08;;;23.17;;
16310;SDS011;8264;48.510;8.872;2022-12-18T16:12:40;40.40;;;21.80;;
16310;SDS011;8264;48.510;8.872;2022-12-18T16:15:09;40.85;;;23.33;;
16310;SDS011;8264;48.510;8.872;2022-12-18T16:17:38;45.90;;;24.27;;
16310;SDS011;8264;48.510;8.872;2022-12-18T16:20:05;46.97;;;23.85;;
16310;SDS011;8264;48.510;8.872;2022-12-18T16:22:33;46.72;;;22.42;;
16310;SDS011;8264;48.510;8.872;2022-12-18T16:24:59;46.63;;;24.33;;
16310;SDS011;8264;48.510;8.872;2022-12-18T16:27:26;49.38;;;22.83;;
16310;SDS011;8264;48.510;8.872;2022-12-18T16:29:52;44.70;;;23.33;;
16310;SDS011;8264;48.510;8.872;2022-12-18T16:32:21;43.35;;;22.88;;
16310;SDS011;8264;48.510;8.872;2022-12-18T16:34:47;42.03;;;22.42;;
16310;SDS011;8264;48.510;8.872;2022-12-18T16:37:14;42.92;;;21.70;;
16310;SDS011;8264;48.510;8.872;2022-12-18T16:39:41;46.78;;;22.85;;
16310;SDS011;8264;48.510;8.872;2022-12-18T16:42:09;44.40;;;22.42;;
16310;SDS011;8264;48.510;8.872;2022-12-18T16:44:39;43.05;;;22.88;;
16310;SDS011;8264;48.510;8.872;2022-12-18T16:47:06;44.55;;;21.80;;
16310;SDS011;8264;48.510;8.872;2022-12-18T16:49:33;43.65;;;22.63;;
16310;SDS011;8264;48.510;8.872;2022-12-18T16:52:01;45.15;;;22.60;;
16310;SDS011;8264;48.510;8.872;2022-12-18T16:54:28;42.15;;;21.25;;
16310;SDS011;8264;48.510;8.872;2022-12-18T16:56:54;36.60;;;20.90;;
16310;SDS011;8264;48.510;8.872;2022-12-18T16:59:21;46.08;;;21.63;;
16310;SDS011;8264;48.510;8.872;2022-12-18T17:01:48;40.92;;;21.60;;
16310;SDS011;8264;48.510;8.872;2022-12-18T17:04:14;41.05;;;21.63;;
16310;SDS011;8264;48.510;8.872;2022-12-18T17:06:44;38.88;;;20.77;;
16310;SDS011;8264;48.510;8.872;2022-12-18T17:09:17;41.90;;;21.60;;
16310;SDS011;8264;48.510;8.872;2022-12-18T17:11:45;41.55;;;22.00;;